createdAt,value
2022-11-05T00:02:08.978Z,99577.66
2022-11-05T00:04:57.922Z,99579.88
2022-11-05T00:07:51.063Z,99579.37
2022-11-05T00:10:24.671Z,99583.96
2022-11-05T00:13:30.121Z,99581.42
2022-11-05T00:16:30.083Z,99582.46
2022-11-05T00:19:07.493Z,99581.27
2022-11-05T00:21:57.721Z,99573.94
2022-11-05T00:24:46.146Z,99578.90
2022-11-05T00:27:17.005Z,99579.92
2022-11-05T00:29:47.879Z,99578.02
2022-11-05T00:32:19.368Z,99575.12
2022-11-05T00:34:50.308Z,99576.45
2022-11-05T00:37:21.135Z,99580.70
2022-11-05T00:39:52.058Z,99576.25
2022-11-05T00:42:40.718Z,99572.35
2022-11-05T00:45:12.845Z,99570.84
2022-11-05T00:48:02.241Z,99572.73
2022-11-05T00:50:34.128Z,99571.02
2022-11-05T00:53:05.409Z,99568.98
2022-11-05T00:55:39.212Z,99561.35
2022-11-05T00:58:12.437Z,99558.33
2022-11-05T01:00:45.932Z,99554.90
2022-11-05T01:03:19.771Z,99558.64
2022-11-05T01:05:52.610Z,99564.29
2022-11-05T01:08:24.885Z,99551.66
2022-11-05T01:10:57.845Z,99552.84
2022-11-05T01:13:30.777Z,99551.14
2022-11-05T01:16:08.795Z,99548.08
2022-11-05T01:18:40.853Z,99553.70
2022-11-05T01:21:16.738Z,99559.01
2022-11-05T01:23:47.613Z,99555.11
2022-11-05T01:26:18.499Z,99559.01
2022-11-05T01:28:53.468Z,99562.10
2022-11-05T01:31:23.331Z,99565.38
2022-11-05T01:33:54.168Z,99569.51
2022-11-05T01:36:25.038Z,99575.33
2022-11-05T01:38:55.849Z,99569.73
2022-11-05T01:41:26.604Z,99569.21
2022-11-05T01:44:00.112Z,99578.96
2022-11-05T01:46:33.655Z,99581.06
2022-11-05T01:49:14.824Z,99580.43
2022-11-05T01:51:48.413Z,99582.65
2022-11-05T01:54:23.292Z,99584.89
2022-11-05T01:56:59.525Z,99584.27
2022-11-05T01:59:35.991Z,99590.95
2022-11-05T02:02:09.274Z,99594.90
2022-11-05T02:04:46.287Z,99596.47
2022-11-05T02:07:18.257Z,99590.37
2022-11-05T02:09:54.600Z,99587.66
2022-11-05T02:12:26.034Z,99586.83
2022-11-05T02:14:57.119Z,99590.08
2022-11-05T02:17:37.602Z,99599.63
2022-11-05T02:20:27.171Z,99600.70
2022-11-05T02:23:32.866Z,99594.08
2022-11-05T02:26:26.671Z,99597.50
2022-11-05T02:29:23.101Z,99592.89
2022-11-05T02:32:04.302Z,99592.88
2022-11-05T02:34:42.518Z,99585.42
2022-11-05T02:37:26.582Z,99588.16
2022-11-05T02:40:07.710Z,99588.52
2022-11-05T02:42:46.580Z,99590.23
2022-11-05T02:45:27.876Z,99594.88
2022-11-05T02:48:08.939Z,99597.94
2022-11-05T02:50:47.519Z,99599.81
2022-11-05T02:53:29.336Z,99604.76
2022-11-05T02:56:06.571Z,99605.29
2022-11-05T02:58:37.760Z,99616.06
2022-11-05T03:01:10.646Z,99619.70
2022-11-05T03:03:44.602Z,99622.48
2022-11-05T03:06:49.484Z,99627.94
2022-11-05T03:09:44.959Z,99617.77
2022-11-05T03:12:27.788Z,99619.31
2022-11-05T03:15:09.275Z,99613.55
2022-11-05T03:17:52.567Z,99616.09
2022-11-05T03:20:30.692Z,99617.30
2022-11-05T03:23:10.703Z,99621.27
2022-11-05T03:25:46.036Z,99621.44
2022-11-05T03:28:19.566Z,99625.88
2022-11-05T03:30:53.570Z,99630.51
2022-11-05T03:33:28.794Z,99631.20
2022-11-05T03:36:00.099Z,99634.92
2022-11-05T03:38:35.693Z,99630.50
2022-11-05T03:41:11.078Z,99633.55
2022-11-05T03:43:48.043Z,99637.08
2022-11-05T03:46:24.106Z,99632.84
2022-11-05T03:48:58.493Z,99635.91
2022-11-05T03:51:39.911Z,99640.71
2022-11-05T03:54:11.611Z,99645.18
2022-11-05T03:56:47.676Z,99639.72
2022-11-05T03:59:20.499Z,99643.99
2022-11-05T04:01:52.427Z,99649.66
2022-11-05T04:04:23.504Z,99655.02
2022-11-05T04:07:20.314Z,99659.64
2022-11-05T04:10:08.752Z,99673.48
2022-11-05T04:12:57.529Z,99675.72
2022-11-05T04:15:29.693Z,99676.60
2022-11-05T04:18:00.505Z,99677.33
2022-11-05T04:20:48.736Z,99674.98
2022-11-05T04:23:37.388Z,99670.77
2022-11-05T04:26:08.323Z,99670.11
2022-11-05T04:28:52.956Z,99673.87
2022-11-05T04:31:23.831Z,99685.83
2022-11-05T04:33:54.742Z,99688.23
2022-11-05T04:36:25.767Z,99693.70
2022-11-05T04:38:56.696Z,99695.23
2022-11-05T04:41:27.834Z,99696.20
2022-11-05T04:43:58.673Z,99706.07
2022-11-05T04:46:29.834Z,99715.25
2022-11-05T04:49:00.687Z,99716.44
2022-11-05T04:51:31.491Z,99717.78
2022-11-05T04:54:02.393Z,99721.17
2022-11-05T04:56:33.577Z,99727.98
2022-11-05T04:59:04.458Z,99728.31
2022-11-05T05:01:35.308Z,99728.52
2022-11-05T05:04:06.300Z,99733.87
2022-11-05T05:06:38.478Z,99739.70
2022-11-05T05:09:09.322Z,99737.70
2022-11-05T05:11:41.149Z,99747.95
2022-11-05T05:14:12.599Z,99749.86
2022-11-05T05:16:43.502Z,99744.64
2022-11-05T05:19:14.279Z,99740.23
2022-11-05T05:21:45.087Z,99736.38
2022-11-05T05:24:18.775Z,99739.34
2022-11-05T05:26:51.929Z,99739.76
2022-11-05T05:29:22.703Z,99745.07
2022-11-05T05:31:53.544Z,99741.71
2022-11-05T05:34:24.373Z,99743.45
2022-11-05T05:36:55.169Z,99752.33
2022-11-05T05:39:27.033Z,99749.31
2022-11-05T05:41:57.855Z,99757.66
2022-11-05T05:44:28.721Z,99758.86
2022-11-05T05:46:59.560Z,99763.30
2022-11-05T05:49:30.661Z,99764.50
2022-11-05T05:52:01.419Z,99763.48
2022-11-05T05:54:34.275Z,99767.41
2022-11-05T05:57:08.090Z,99769.45
2022-11-05T05:59:39.190Z,99769.80
2022-11-05T06:02:10.974Z,99774.41
2022-11-05T06:04:41.934Z,99780.55
2022-11-05T06:07:12.726Z,99779.36
2022-11-05T06:09:43.510Z,99783.12
2022-11-05T06:12:14.340Z,99782.95
2022-11-05T06:14:45.204Z,99788.26
2022-11-05T06:17:16.056Z,99799.69
2022-11-05T06:19:47.376Z,99797.28
2022-11-05T06:22:18.167Z,99794.73
2022-11-05T06:24:49.035Z,99800.02
2022-11-05T06:27:19.848Z,99800.16
2022-11-05T06:29:50.631Z,99798.46
2022-11-05T06:32:21.450Z,99809.67
2022-11-05T06:34:52.284Z,99807.78
2022-11-05T06:37:23.061Z,99808.29
2022-11-05T06:39:53.847Z,99810.52
2022-11-05T06:42:25.408Z,99817.66
2022-11-05T06:44:56.311Z,99817.50
2022-11-05T06:47:27.060Z,99819.55
2022-11-05T06:49:58.240Z,99817.17
2022-11-05T06:52:31.380Z,99818.72
2022-11-05T06:55:02.193Z,99817.54
2022-11-05T06:57:33.341Z,99808.36
2022-11-05T07:00:07.823Z,99809.88
2022-11-05T07:02:39.013Z,99809.89
2022-11-05T07:05:11.732Z,99816.16
2022-11-05T07:07:43.221Z,99824.14
2022-11-05T07:10:16.866Z,99827.36
2022-11-05T07:12:47.651Z,99825.78
2022-11-05T07:15:18.618Z,99826.11
2022-11-05T07:17:49.917Z,99825.73
2022-11-05T07:20:20.809Z,99832.04
2022-11-05T07:22:51.646Z,99835.10
2022-11-05T07:25:22.491Z,99827.42
2022-11-05T07:27:53.624Z,99829.64
2022-11-05T07:30:24.394Z,99832.86
2022-11-05T07:32:55.166Z,99834.39
2022-11-05T07:35:26.175Z,99832.00
2022-11-05T07:37:57.631Z,99831.33
2022-11-05T07:40:30.564Z,99843.22
2022-11-05T07:43:02.567Z,99851.72
2022-11-05T07:45:33.981Z,99857.65
2022-11-05T07:48:06.049Z,99856.95
2022-11-05T07:50:38.181Z,99859.95
2022-11-05T07:53:12.120Z,99863.52
2022-11-05T07:55:46.105Z,99871.98
2022-11-05T07:58:16.981Z,99876.38
2022-11-05T08:00:49.943Z,99872.59
2022-11-05T08:03:21.970Z,99881.08
2022-11-05T08:05:53.923Z,99887.90
2022-11-05T08:08:25.145Z,99893.35
2022-11-05T08:11:04.990Z,99896.23
2022-11-05T08:13:37.760Z,99900.30
2022-11-05T08:16:10.855Z,99897.05
2022-11-05T08:18:42.900Z,99897.88
2022-11-05T08:21:16.738Z,99899.55
2022-11-05T08:23:48.630Z,99896.77
2022-11-05T08:26:20.833Z,99894.88
2022-11-05T08:28:52.071Z,99896.73
2022-11-05T08:31:23.328Z,99897.55
2022-11-05T08:33:59.680Z,99895.83
2022-11-05T08:36:35.568Z,99891.36
2022-11-05T08:39:06.637Z,99892.36
2022-11-05T08:41:38.240Z,99897.84
2022-11-05T08:44:12.422Z,99907.20
2022-11-05T08:46:44.218Z,99908.54
2022-11-05T08:49:15.269Z,99903.38
2022-11-05T08:51:47.851Z,99904.19
2022-11-05T08:54:18.741Z,99895.65
2022-11-05T08:56:52.342Z,99894.77
2022-11-05T08:59:25.130Z,99904.63
2022-11-05T09:01:56.641Z,99908.88
2022-11-05T09:04:28.069Z,99914.98
2022-11-05T09:06:59.866Z,99924.16
2022-11-05T09:09:32.950Z,99929.92
2022-11-05T09:12:12.992Z,99935.20
2022-11-05T09:14:44.910Z,99935.35
2022-11-05T09:17:23.443Z,99931.77
2022-11-05T09:19:54.717Z,99943.33
2022-11-05T09:22:26.081Z,99943.62
2022-11-05T09:24:58.767Z,99943.44
2022-11-05T09:27:31.597Z,99945.64
2022-11-05T09:30:02.660Z,99950.04
2022-11-05T09:32:35.543Z,99948.11
2022-11-05T09:35:10.825Z,99942.79
2022-11-05T09:37:40.792Z,99946.88
2022-11-05T09:40:19.591Z,99947.05
2022-11-05T09:42:52.809Z,99951.48
2022-11-05T09:45:28.260Z,99954.88
2022-11-05T09:48:05.654Z,99963.05
2022-11-05T09:50:41.440Z,99966.77
2022-11-05T09:53:18.503Z,99973.92
2022-11-05T09:55:56.850Z,99972.73
2022-11-05T09:58:37.489Z,99977.48
2022-11-05T10:01:13.528Z,99986.34
2022-11-05T10:03:47.635Z,99981.56
2022-11-05T10:06:24.091Z,99980.69
2022-11-05T10:09:02.448Z,99981.14
2022-11-05T10:11:38.372Z,99992.33
2022-11-05T10:14:18.348Z,99999.83
2022-11-05T10:16:54.251Z,100006.11
2022-11-05T10:19:27.974Z,100013.78
2022-11-05T10:22:10.894Z,100017.36
2022-11-05T10:24:46.533Z,100011.71
2022-11-05T10:27:21.261Z,100014.77
2022-11-05T10:29:54.081Z,100018.16
2022-11-05T10:32:40.247Z,100023.11
2022-11-05T10:35:18.551Z,100022.77
2022-11-05T10:37:53.770Z,100020.86
2022-11-05T10:40:29.491Z,100025.13
2022-11-05T10:43:07.433Z,100029.02
2022-11-05T10:45:47.535Z,100035.16
2022-11-05T10:48:43.866Z,100033.29
2022-11-05T10:51:16.263Z,100025.10
2022-11-05T10:54:01.345Z,100025.63
2022-11-05T10:56:36.999Z,100022.21
2022-11-05T10:59:23.407Z,100022.53
2022-11-05T11:02:04.604Z,100024.89
2022-11-05T11:04:38.050Z,100025.52
2022-11-05T11:07:23.510Z,100030.60
2022-11-05T11:09:55.109Z,100029.38
2022-11-05T11:12:29.005Z,100028.34
2022-11-05T11:15:15.236Z,100030.55
2022-11-05T11:17:46.587Z,100033.78
2022-11-05T11:20:30.185Z,100040.80
2022-11-05T11:23:12.537Z,100044.90
2022-11-05T11:25:51.483Z,100042.17
2022-11-05T11:28:29.870Z,100039.45
2022-11-05T11:31:07.977Z,100039.93
2022-11-05T11:33:45.804Z,100045.72
2022-11-05T11:36:19.706Z,100053.05
2022-11-05T11:38:50.738Z,100052.34
2022-11-05T11:41:31.110Z,100052.66
2022-11-05T11:44:07.583Z,100050.75
2022-11-05T11:46:39.195Z,100052.28
2022-11-05T11:49:35.107Z,100052.13
2022-11-05T11:52:11.874Z,100054.86
2022-11-05T11:54:43.464Z,100059.96
2022-11-05T11:57:25.821Z,100063.05
2022-11-05T12:00:09.455Z,100063.04
2022-11-05T12:03:02.271Z,100063.20
2022-11-05T12:05:51.569Z,100071.25
2022-11-05T12:08:58.216Z,100076.52
2022-11-05T12:11:40.554Z,100080.97
2022-11-05T12:14:23.839Z,100085.23
2022-11-05T12:17:32.570Z,100090.52
2022-11-05T12:20:41.988Z,100093.60
2022-11-05T12:23:43.154Z,100097.35
2022-11-05T12:26:24.953Z,100096.29
2022-11-05T12:29:20.032Z,100096.27
2022-11-05T12:32:12.106Z,100097.56
2022-11-05T12:34:54.284Z,100099.06
2022-11-05T12:37:33.695Z,100100.02
2022-11-05T12:40:35.292Z,100097.55
2022-11-05T12:43:18.415Z,100092.33
2022-11-05T12:45:56.890Z,100087.96
2022-11-05T12:48:46.640Z,100079.57
2022-11-05T12:51:35.262Z,100077.70
2022-11-05T12:54:21.239Z,100087.84
2022-11-05T12:56:58.049Z,100086.70
2022-11-05T12:59:36.121Z,100095.10
2022-11-05T13:02:18.009Z,100096.15
2022-11-05T13:04:53.258Z,100095.98
2022-11-05T13:07:25.174Z,100098.05
2022-11-05T13:10:01.067Z,100092.11
2022-11-05T13:12:39.229Z,100091.44
2022-11-05T13:15:23.000Z,100083.64
2022-11-05T13:17:58.526Z,100078.73
2022-11-05T13:20:34.209Z,100084.23
2022-11-05T13:23:14.267Z,100101.54
2022-11-05T13:25:53.819Z,100106.17
2022-11-05T13:28:37.119Z,100107.17
2022-11-05T13:31:15.252Z,100108.67
2022-11-05T13:33:48.492Z,100111.71
2022-11-05T13:36:41.347Z,100112.04
2022-11-05T13:39:19.474Z,100121.56
2022-11-05T13:42:23.553Z,100126.13
2022-11-05T13:45:30.132Z,100131.25
2022-11-05T13:48:26.576Z,100131.95
2022-11-05T13:51:36.158Z,100135.20
2022-11-05T13:54:49.096Z,100145.14
2022-11-05T13:57:44.595Z,100150.10
2022-11-05T14:00:20.168Z,100148.89
2022-11-05T14:02:55.359Z,100148.38
2022-11-05T14:05:35.387Z,100150.98
2022-11-05T14:08:15.095Z,100155.27
2022-11-05T14:10:57.924Z,100159.07
2022-11-05T14:13:36.596Z,100162.90
2022-11-05T14:16:11.639Z,100166.73
2022-11-05T14:18:46.499Z,100173.23
2022-11-05T14:21:47.546Z,100176.80
2022-11-05T14:24:44.417Z,100180.97
2022-11-05T14:27:44.591Z,100187.52
2022-11-05T14:30:47.305Z,100189.27
2022-11-05T14:33:33.250Z,100189.11
2022-11-05T14:36:32.395Z,100190.66
2022-11-05T14:39:19.540Z,100195.98
2022-11-05T14:42:01.948Z,100197.38
2022-11-05T14:44:34.903Z,100201.66
2022-11-05T14:47:09.034Z,100204.40
2022-11-05T14:49:53.080Z,100210.06
2022-11-05T14:52:25.018Z,100214.01
2022-11-05T14:54:58.955Z,100211.98
2022-11-05T14:58:06.050Z,100215.91
2022-11-05T15:00:52.011Z,100210.30
2022-11-05T15:04:07.020Z,100213.88
2022-11-05T15:06:38.566Z,100214.73
2022-11-05T15:09:30.902Z,100216.24
2022-11-05T15:12:10.185Z,100215.52
2022-11-05T15:14:51.509Z,100222.34
2022-11-05T15:17:30.156Z,100223.53
2022-11-05T15:20:16.721Z,100224.05
2022-11-05T15:22:52.803Z,100224.22
2022-11-05T15:25:28.133Z,100227.63
2022-11-05T15:28:08.356Z,100230.20
2022-11-05T15:30:39.565Z,100231.55
2022-11-05T15:33:21.494Z,100234.95
2022-11-05T15:35:52.428Z,100235.98
2022-11-05T15:38:34.157Z,100237.67
2022-11-05T15:41:07.677Z,100241.26
2022-11-05T15:43:48.089Z,100244.67
2022-11-05T15:46:22.181Z,100245.16
2022-11-05T15:48:55.267Z,100247.02
2022-11-05T15:51:27.802Z,100247.52
2022-11-05T15:54:28.637Z,100249.73
2022-11-05T15:56:55.911Z,100244.07
2022-11-05T15:59:29.801Z,100246.45
2022-11-05T16:02:07.041Z,100251.75
2022-11-05T16:04:38.485Z,100257.23
2022-11-05T16:07:13.260Z,100256.88
2022-11-05T16:09:59.006Z,100257.05
2022-11-05T16:12:40.509Z,100259.77
2022-11-05T16:15:26.715Z,100262.31
2022-11-05T16:17:59.805Z,100266.55
2022-11-05T16:20:34.271Z,100271.98
2022-11-05T16:23:07.980Z,100276.22
2022-11-05T16:25:44.118Z,100278.05
2022-11-05T16:28:25.745Z,100280.57
2022-11-05T16:31:03.254Z,100289.92
2022-11-05T16:33:44.826Z,100285.28
2022-11-05T16:36:15.797Z,100289.17
2022-11-05T16:38:47.651Z,100293.77
2022-11-05T16:41:20.407Z,100296.98
2022-11-05T16:43:56.508Z,100305.38
2022-11-05T16:46:29.697Z,100312.04
2022-11-05T16:49:02.990Z,100317.00
2022-11-05T16:51:34.564Z,100314.75
2022-11-05T16:54:06.154Z,100315.27
2022-11-05T16:56:38.039Z,100322.25
2022-11-05T16:59:12.314Z,100325.34
2022-11-05T17:01:45.223Z,100325.16
2022-11-05T17:04:16.324Z,100328.74
2022-11-05T17:06:50.165Z,100327.38
2022-11-05T17:09:21.519Z,100331.98
2022-11-05T17:11:52.778Z,100338.84
2022-11-05T17:14:23.718Z,100344.45
2022-11-05T17:16:54.814Z,100349.42
2022-11-05T17:19:29.347Z,100348.89
2022-11-05T17:22:08.185Z,100352.64
2022-11-05T17:24:39.706Z,100363.74
2022-11-05T17:27:10.989Z,100364.60
2022-11-05T17:29:42.308Z,100367.48
2022-11-05T17:32:13.362Z,100362.02
2022-11-05T17:34:45.159Z,100366.95
2022-11-05T17:37:16.112Z,100369.19
2022-11-05T17:39:47.022Z,100369.35
2022-11-05T17:42:18.267Z,100367.80
2022-11-05T17:44:50.011Z,100371.73
2022-11-05T17:47:21.825Z,100375.63
2022-11-05T17:49:53.199Z,100376.33
2022-11-05T17:52:24.515Z,100377.67
2022-11-05T17:54:55.476Z,100376.12
2022-11-05T17:57:30.046Z,100380.05
2022-11-05T18:00:05.302Z,100385.68
2022-11-05T18:02:42.070Z,100388.05
2022-11-05T18:05:16.276Z,100392.66
2022-11-05T18:07:51.941Z,100391.63
2022-11-05T18:10:23.467Z,100395.38
2022-11-05T18:12:55.251Z,100396.89
2022-11-05T18:15:30.697Z,100396.20
2022-11-05T18:18:02.084Z,100398.23
2022-11-05T18:20:34.174Z,100397.17
2022-11-05T18:23:05.584Z,100401.63
2022-11-05T18:25:36.596Z,100398.02
2022-11-05T18:28:07.978Z,100399.02
2022-11-05T18:30:40.827Z,100400.20
2022-11-05T18:33:12.086Z,100403.45
2022-11-05T18:35:46.427Z,100409.25
2022-11-05T18:38:17.516Z,100411.98
2022-11-05T18:40:48.445Z,100412.34
2022-11-05T18:43:19.540Z,100409.45
2022-11-05T18:45:57.697Z,100409.98
2022-11-05T18:48:28.581Z,100409.63
2022-11-05T18:51:02.030Z,100408.95
2022-11-05T18:53:33.530Z,100407.44
2022-11-05T18:56:10.247Z,100411.04
2022-11-05T18:58:43.023Z,100416.38
2022-11-05T19:01:18.267Z,100415.37
2022-11-05T19:03:51.268Z,100417.59
2022-11-05T19:06:22.493Z,100420.86
2022-11-05T19:08:53.946Z,100420.38
2022-11-05T19:11:26.506Z,100424.32
2022-11-05T19:13:57.637Z,100428.60
2022-11-05T19:16:30.740Z,100429.48
2022-11-05T19:19:03.261Z,100430.70
2022-11-05T19:21:34.691Z,100429.16
2022-11-05T19:24:06.639Z,100429.70
2022-11-05T19:26:37.617Z,100430.73
2022-11-05T19:29:08.835Z,100432.27
2022-11-05T19:31:39.997Z,100442.36
2022-11-05T19:34:11.457Z,100442.55
2022-11-05T19:36:43.541Z,100447.01
2022-11-05T19:39:16.566Z,100451.80
2022-11-05T19:41:49.387Z,100456.60
2022-11-05T19:44:20.287Z,100460.03
2022-11-05T19:46:51.371Z,100462.77
2022-11-05T19:49:22.247Z,100464.48
2022-11-05T19:51:53.074Z,100471.48
2022-11-05T19:54:24.074Z,100473.18
2022-11-05T19:56:56.759Z,100475.59
2022-11-05T19:59:35.507Z,100474.56
2022-11-05T20:02:13.292Z,100476.45
2022-11-05T20:04:47.278Z,100480.02
2022-11-05T20:07:20.597Z,100482.91
2022-11-05T20:09:51.439Z,100483.42
2022-11-05T20:12:22.550Z,100483.08
2022-11-05T20:14:53.749Z,100487.87
2022-11-05T20:17:24.840Z,100489.58
2022-11-05T20:19:56.502Z,100495.22
2022-11-05T20:22:27.390Z,100493.51
2022-11-05T20:24:58.629Z,100495.38
2022-11-05T20:27:30.016Z,100489.58
2022-11-05T20:30:01.098Z,100496.60
2022-11-05T20:32:32.038Z,100500.20
2022-11-05T20:35:03.299Z,100502.08
2022-11-05T20:37:34.607Z,100507.89
2022-11-05T20:40:06.972Z,100509.59
2022-11-05T20:42:39.624Z,100512.84
2022-11-05T20:45:11.876Z,100515.58
2022-11-05T20:47:43.765Z,100517.11
2022-11-05T20:50:14.615Z,100514.89
2022-11-05T20:52:45.483Z,100512.98
2022-11-05T20:55:16.610Z,100513.70
2022-11-05T20:57:47.514Z,100522.23
2022-11-05T21:00:19.881Z,100523.77
2022-11-05T21:02:51.123Z,100522.92
2022-11-05T21:05:22.448Z,100522.41
2022-11-05T21:07:53.568Z,100527.20
2022-11-05T21:10:26.282Z,100523.09
2022-11-05T21:12:57.450Z,100525.48
2022-11-05T21:15:28.562Z,100528.91
2022-11-05T21:18:00.649Z,100526.69
2022-11-05T21:20:32.093Z,100528.92
2022-11-05T21:23:03.178Z,100532.00
2022-11-05T21:25:34.441Z,100525.52
2022-11-05T21:28:05.544Z,100529.27
2022-11-05T21:30:37.588Z,100528.40
2022-11-05T21:33:09.296Z,100528.73
2022-11-05T21:35:44.976Z,100531.12
2022-11-05T21:38:17.807Z,100535.56
2022-11-05T21:40:48.865Z,100539.84
2022-11-05T21:43:19.930Z,100540.88
2022-11-05T21:45:50.955Z,100546.52
2022-11-05T21:48:22.159Z,100540.34
2022-11-05T21:51:12.556Z,100543.42
2022-11-05T21:54:01.582Z,100539.67
2022-11-05T21:56:50.886Z,100537.11
2022-11-05T21:59:41.421Z,100539.17
2022-11-05T22:02:14.928Z,100540.55
2022-11-05T22:04:47.969Z,100535.59
2022-11-05T22:07:21.472Z,100535.08
2022-11-05T22:09:53.180Z,100535.58
2022-11-05T22:12:25.587Z,100534.40
2022-11-05T22:14:57.165Z,100535.09
2022-11-05T22:17:28.745Z,100541.56
2022-11-05T22:19:59.684Z,100537.81
2022-11-05T22:22:30.831Z,100538.15
2022-11-05T22:25:02.216Z,100538.66
2022-11-05T22:27:33.276Z,100550.13
2022-11-05T22:30:04.893Z,100558.02
2022-11-05T22:32:35.880Z,100563.49
2022-11-05T22:35:08.496Z,100565.88
2022-11-05T22:37:39.438Z,100567.44
2022-11-05T22:40:12.968Z,100568.46
2022-11-05T22:42:43.866Z,100575.13
2022-11-05T22:45:15.166Z,100571.02
2022-11-05T22:47:46.506Z,100569.15
2022-11-05T22:50:17.591Z,100573.93
2022-11-05T22:52:48.693Z,100573.77
2022-11-05T22:55:19.698Z,100573.08
2022-11-05T22:57:50.686Z,100570.34
2022-11-05T23:00:22.800Z,100574.11
2022-11-05T23:02:54.375Z,100568.64
2022-11-05T23:05:25.795Z,100567.45
2022-11-05T23:08:14.357Z,100568.83
2022-11-05T23:11:03.804Z,100567.29
2022-11-05T23:13:35.257Z,100573.27
2022-11-05T23:16:24.326Z,100574.98
2022-11-05T23:19:12.782Z,100574.31
2022-11-05T23:22:01.682Z,100580.46
2022-11-05T23:24:32.954Z,100572.11
2022-11-05T23:27:04.474Z,100570.23
2022-11-05T23:29:35.956Z,100571.45
2022-11-05T23:32:25.378Z,100573.15
2022-11-05T23:34:58.306Z,100576.57
2022-11-05T23:37:51.547Z,100573.49
2022-11-05T23:40:25.811Z,100574.89
2022-11-05T23:43:15.384Z,100576.77
2022-11-05T23:46:05.234Z,100575.91
2022-11-05T23:48:38.503Z,100572.51
2022-11-05T23:51:12.460Z,100574.58
2022-11-05T23:53:44.455Z,100576.81
2022-11-05T23:56:16.727Z,100577.50
2022-11-05T23:58:48.835Z,100579.55
